National Weather Service Raw Text Product

Displaying AFOS PIL: TAFALO Received: 2017-10-13 13:14 UTC


246 
FTUS43 KDMX 131314 AAA
TAFALO
TAF AMD
KALO 131314Z 1313/1412 VRB03KT 6SM BR BKN005
     FM131800 02006KT 5SM -SHRA OVC015
     FM140300 04007KT P6SM OVC027
     FM141100 06008KT P6SM -SHRA OVC011=

040 
FTUS43 KDMX 131314 AAB
TAFALO
TAF AMD
KALO 131314Z 1313/1412 VRB03KT 5SM BR BKN007
     FM131800 02006KT 5SM -SHRA OVC015
     FM140300 04007KT P6SM OVC027
     FM141100 06008KT P6SM -SHRA OVC011=